sensor_id;sensor_type;location;lat;lon;timestamp;pressure;altitude;pressure_sealevel;temperature;humidity
28927;BME280;16038;47.692;9.400;2023-12-04T00:01:34;96789.28;;;-5.25;100.00
28927;BME280;16038;47.692;9.400;2023-12-04T00:04:01;96772.72;;;-5.27;100.00
28927;BME280;16038;47.692;9.400;2023-12-04T00:06:26;96769.78;;;-5.21;100.00
28927;BME280;16038;47.692;9.400;2023-12-04T00:08:52;96772.19;;;-5.29;100.00
28927;BME280;16038;47.692;9.400;2023-12-04T00:11:17;96760.44;;;-5.28;100.00
28927;BME280;16038;47.692;9.400;2023-12-04T00:13:43;96764.72;;;-5.22;100.00
28927;BME280;16038;47.692;9.400;2023-12-04T00:16:08;96756.16;;;-5.24;100.00
28927;BME280;16038;47.692;9.400;2023-12-04T00:18:34;96752.19;;;-5.22;100.00
28927;BME280;16038;47.692;9.400;2023-12-04T00:20:59;96755.94;;;-5.12;100.00
28927;BME280;16038;47.692;9.400;2023-12-04T00:23:25;96750.84;;;-5.14;100.00
28927;BME280;16038;47.692;9.400;2023-12-04T00:25:50;96745.25;;;-5.07;100.00
28927;BME280;16038;47.692;9.400;2023-12-04T00:28:15;96733.50;;;-5.06;100.00
28927;BME280;16038;47.692;9.400;2023-12-04T00:30:41;96739.63;;;-5.01;100.00
28927;BME280;16038;47.692;9.400;2023-12-04T00:33:07;96732.16;;;-4.93;100.00
28927;BME280;16038;47.692;9.400;2023-12-04T00:35:32;96731.13;;;-4.87;100.00
28927;BME280;16038;47.692;9.400;2023-12-04T00:37:57;96737.78;;;-4.85;100.00
28927;BME280;16038;47.692;9.400;2023-12-04T00:40:23;96736.72;;;-4.94;100.00
28927;BME280;16038;47.692;9.400;2023-12-04T00:42:48;96731.66;;;-4.90;100.00
28927;BME280;16038;47.692;9.400;2023-12-04T00:45:13;96739.13;;;-4.92;100.00
28927;BME280;16038;47.692;9.400;2023-12-04T00:47:39;96727.38;;;-5.02;100.00
28927;BME280;16038;47.692;9.400;2023-12-04T00:50:05;96723.63;;;-5.01;100.00
28927;BME280;16038;47.692;9.400;2023-12-04T00:52:30;96721.50;;;-4.98;100.00
28927;BME280;16038;47.692;9.400;2023-12-04T00:54:56;96719.34;;;-5.02;100.00
28927;BME280;16038;47.692;9.400;2023-12-04T00:57:21;96714.28;;;-4.93;100.00
28927;BME280;16038;47.692;9.400;2023-12-04T00:59:46;96711.63;;;-4.88;100.00
28927;BME280;16038;47.692;9.400;2023-12-04T01:02:12;96712.69;;;-4.94;100.00
28927;BME280;16038;47.692;9.400;2023-12-04T01:04:40;96705.72;;;-4.85;100.00
28927;BME280;16038;47.692;9.400;2023-12-04T01:07:09;96700.91;;;-4.83;100.00
28927;BME280;16038;47.692;9.400;2023-12-04T01:09:35;96706.25;;;-4.77;100.00
28927;BME280;16038;47.692;9.400;2023-12-04T01:12:01;96707.88;;;-4.76;100.00
28927;BME280;16038;47.692;9.400;2023-12-04T01:14:26;96704.13;;;-4.75;100.00
28927;BME280;16038;47.692;9.400;2023-12-04T01:16:51;96701.44;;;-4.70;100.00
28927;BME280;16038;47.692;9.400;2023-12-04T01:19:17;96695.84;;;-4.64;100.00
28927;BME280;16038;47.692;9.400;2023-12-04T01:21:42;96697.19;;;-4.71;100.00
28927;BME280;16038;47.692;9.400;2023-12-04T01:24:07;96701.47;;;-4.81;100.00
28927;BME280;16038;47.692;9.400;2023-12-04T01:26:33;96700.13;;;-4.83;100.00
28927;BME280;16038;47.692;9.400;2023-12-04T01:28:59;96699.06;;;-4.77;100.00
28927;BME280;16038;47.692;9.400;2023-12-04T01:31:24;96711.09;;;-4.74;100.00
28927;BME280;16038;47.692;9.400;2023-12-04T01:33:50;96713.50;;;-4.73;100.00
28927;BME280;16038;47.692;9.400;2023-12-04T01:36:15;96701.72;;;-4.67;100.00
28927;BME280;16038;47.692;9.400;2023-12-04T01:38:40;96701.72;;;-4.62;100.00
28927;BME280;16038;47.692;9.400;2023-12-04T01:41:06;96699.59;;;-4.70;100.00
28927;BME280;16038;47.692;9.400;2023-12-04T01:43:31;96710.81;;;-4.68;100.00
28927;BME280;16038;47.692;9.400;2023-12-04T01:45:59;96700.91;;;-4.62;100.00
28927;BME280;16038;47.692;9.400;2023-12-04T01:48:26;96701.97;;;-4.58;100.00
28927;BME280;16038;47.692;9.400;2023-12-04T01:50:52;96696.91;;;-4.54;100.00
28927;BME280;16038;47.692;9.400;2023-12-04T01:53:18;96695.84;;;-4.48;100.00
28927;BME280;16038;47.692;9.400;2023-12-04T01:55:44;96706.78;;;-4.50;100.00
28927;BME280;16038;47.692;9.400;2023-12-04T01:58:11;96710.00;;;-4.63;100.00
28927;BME280;16038;47.692;9.400;2023-12-04T02:00:36;96704.13;;;-4.60;100.00
28927;BME280;16038;47.692;9.400;2023-12-04T02:03:02;96700.66;;;-4.55;100.00
28927;BME280;16038;47.692;9.400;2023-12-04T02:05:28;96702.50;;;-4.40;100.00
28927;BME280;16038;47.692;9.400;2023-12-04T02:07:54;96693.44;;;-4.50;100.00
28927;BME280;16038;47.692;9.400;2023-12-04T02:10:21;96697.69;;;-4.44;100.00
28927;BME280;16038;47.692;9.400;2023-12-04T02:12:47;96706.22;;;-4.31;100.00
28927;BME280;16038;47.692;9.400;2023-12-04T02:15:12;96708.91;;;-4.42;100.00
28927;BME280;16038;47.692;9.400;2023-12-04T02:17:39;96695.53;;;-4.36;100.00
28927;BME280;16038;47.692;9.400;2023-12-04T02:20:05;96697.16;;;-4.35;100.00
28927;BME280;16038;47.692;9.400;2023-12-04T02:22:31;96697.16;;;-4.35;100.00
28927;BME280;16038;47.692;9.400;2023-12-04T02:24:56;96697.16;;;-4.40;100.00
28927;BME280;16038;47.692;9.400;2023-12-04T02:27:38;96692.91;;;-4.52;100.00
28927;BME280;16038;47.692;9.400;2023-12-04T02:30:08;96687.81;;;-4.53;100.00
28927;BME280;16038;47.692;9.400;2023-12-04T02:32:38;96685.94;;;-4.48;100.00
28927;BME280;16038;47.692;9.400;2023-12-04T02:35:08;96687.25;;;-4.50;100.00
28927;BME280;16038;47.692;9.400;2023-12-04T02:37:35;96677.13;;;-4.58;100.00
28927;BME280;16038;47.692;9.400;2023-12-04T02:40:01;96677.13;;;-4.53;100.00
28927;BME280;16038;47.692;9.400;2023-12-04T02:42:27;96688.06;;;-4.50;100.00
28927;BME280;16038;47.692;9.400;2023-12-04T02:44:53;96681.94;;;-4.55;100.00
28927;BME280;16038;47.692;9.400;2023-12-04T02:47:18;96677.13;;;-4.48;100.00
28927;BME280;16038;47.692;9.400;2023-12-04T02:49:44;96669.63;;;-4.51;100.00
28927;BME280;16038;47.692;9.400;2023-12-04T02:52:10;96665.59;;;-4.54;100.00
28927;BME280;16038;47.692;9.400;2023-12-04T02:54:35;96664.56;;;-4.53;100.00
28927;BME280;16038;47.692;9.400;2023-12-04T02:57:02;96659.22;;;-4.58;100.00
28927;BME280;16038;47.692;9.400;2023-12-04T02:59:28;96653.59;;;-4.56;100.00
28927;BME280;16038;47.692;9.400;2023-12-04T03:01:53;96654.44;;;-4.66;100.00
28927;BME280;16038;47.692;9.400;2023-12-04T03:04:19;96659.75;;;-4.56;100.00
28927;BME280;16038;47.692;9.400;2023-12-04T03:06:45;96645.59;;;-4.56;100.00
28927;BME280;16038;47.692;9.400;2023-12-04T03:09:10;96643.44;;;-4.65;100.00
28927;BME280;16038;47.692;9.400;2023-12-04T03:11:39;96639.19;;;-4.71;100.00
28927;BME280;16038;47.692;9.400;2023-12-04T03:14:04;96650.66;;;-4.65;100.00
28927;BME280;16038;47.692;9.400;2023-12-04T03:16:30;96636.78;;;-4.72;100.00
28927;BME280;16038;47.692;9.400;2023-12-04T03:18:55;96634.94;;;-4.77;100.00
28927;BME280;16038;47.692;9.400;2023-12-04T03:21:20;96626.34;;;-4.74;100.00
28927;BME280;16038;47.692;9.400;2023-12-04T03:23:46;96629.56;;;-4.72;100.00
28927;BME280;16038;47.692;9.400;2023-12-04T03:26:11;96620.75;;;-4.72;100.00
28927;BME280;16038;47.692;9.400;2023-12-04T03:28:38;96618.34;;;-4.69;100.00
28927;BME280;16038;47.692;9.400;2023-12-04T03:31:04;96613.81;;;-4.73;100.00
28927;BME280;16038;47.692;9.400;2023-12-04T03:33:29;96605.25;;;-4.70;100.00
28927;BME280;16038;47.692;9.400;2023-12-04T03:35:55;96619.13;;;-4.68;100.00
28927;BME280;16038;47.692;9.400;2023-12-04T03:38:20;96618.34;;;-4.69;100.00
28927;BME280;16038;47.692;9.400;2023-12-04T03:40:45;96619.16;;;-4.73;100.00
28927;BME280;16038;47.692;9.400;2023-12-04T03:43:11;96618.06;;;-4.72;100.00
28927;BME280;16038;47.692;9.400;2023-12-04T03:45:36;96613.53;;;-4.72;100.00
28927;BME280;16038;47.692;9.400;2023-12-04T03:48:01;96614.34;;;-4.76;100.00
28927;BME280;16038;47.692;9.400;2023-12-04T03:50:27;96609.81;;;-4.76;100.00
28927;BME280;16038;47.692;9.400;2023-12-04T03:52:52;96615.13;;;-4.71;100.00
28927;BME280;16038;47.692;9.400;2023-12-04T03:55:17;96608.47;;;-4.78;100.00
28927;BME280;16038;47.692;9.400;2023-12-04T03:57:45;96609.28;;;-4.83;100.00
28927;BME280;16038;47.692;9.400;2023-12-04T04:00:11;96613.31;;;-4.81;100.00
28927;BME280;16038;47.692;9.400;2023-12-04T04:02:38;96609.81;;;-4.76;100.00
28927;BME280;16038;47.692;9.400;2023-12-04T04:05:04;96596.72;;;-4.77;100.00
28927;BME280;16038;47.692;9.400;2023-12-04T04:07:29;96606.06;;;-4.75;100.00
28927;BME280;16038;47.692;9.400;2023-12-04T04:09:55;96603.91;;;-4.73;100.00
28927;BME280;16038;47.692;9.400;2023-12-04T04:12:21;96606.31;;;-4.71;100.00
28927;BME280;16038;47.692;9.400;2023-12-04T04:14:47;96602.31;;;-4.79;100.00
28927;BME280;16038;47.692;9.400;2023-12-04T04:17:12;96598.31;;;-4.82;100.00
28927;BME280;16038;47.692;9.400;2023-12-04T04:19:37;96601.53;;;-4.80;100.00
28927;BME280;16038;47.692;9.400;2023-12-04T04:22:03;96587.66;;;-4.87;100.00
28927;BME280;16038;47.692;9.400;2023-12-04T04:24:28;96586.84;;;-4.92;100.00
28927;BME280;16038;47.692;9.400;2023-12-04T04:26:54;96587.66;;;-4.92;100.00
28927;BME280;16038;47.692;9.400;2023-12-04T04:29:19;96584.72;;;-4.90;100.00
28927;BME280;16038;47.692;9.400;2023-12-04T04:31:44;96570.81;;;-4.92;100.00
28927;BME280;16038;47.692;9.400;2023-12-04T04:34:10;96574.84;;;-4.95;100.00
28927;BME280;16038;47.692;9.400;2023-12-04T04:36:35;96571.88;;;-4.88;100.00
28927;BME280;16038;47.692;9.400;2023-12-04T04:39:01;96572.41;;;-4.81;100.00
28927;BME280;16038;47.692;9.400;2023-12-04T04:41:26;96569.97;;;-4.77;100.00
28927;BME280;16038;47.692;9.400;2023-12-04T04:43:52;96576.38;;;-4.68;100.00
28927;BME280;16038;47.692;9.400;2023-12-04T04:46:18;96560.66;;;-4.75;100.00
28927;BME280;16038;47.692;9.400;2023-12-04T04:48:43;96577.72;;;-4.76;100.00
28927;BME280;16038;47.692;9.400;2023-12-04T04:51:09;96575.06;;;-4.71;100.00
28927;BME280;16038;47.692;9.400;2023-12-04T04:53:34;96562.78;;;-4.77;100.00
28927;BME280;16038;47.692;9.400;2023-12-04T04:55:59;96559.31;;;-4.83;100.00
28927;BME280;16038;47.692;9.400;2023-12-04T04:58:25;96557.19;;;-4.81;100.00
28927;BME280;16038;47.692;9.400;2023-12-04T05:00:50;96554.25;;;-4.84;100.00
28927;BME280;16038;47.692;9.400;2023-12-04T05:03:16;96555.84;;;-4.83;100.00
28927;BME280;16038;47.692;9.400;2023-12-04T05:05:41;96546.78;;;-4.82;100.00
28927;BME280;16038;47.692;9.400;2023-12-04T05:08:07;96548.34;;;-4.86;100.00
28927;BME280;16038;47.692;9.400;2023-12-04T05:10:32;96543.06;;;-4.91;100.00
28927;BME280;16038;47.692;9.400;2023-12-04T05:12:58;96544.63;;;-4.90;100.00
28927;BME280;16038;47.692;9.400;2023-12-04T05:15:23;96550.78;;;-4.90;100.00
28927;BME280;16038;47.692;9.400;2023-12-04T05:17:48;96546.50;;;-4.91;100.00
28927;BME280;16038;47.692;9.400;2023-12-04T05:20:14;96542.50;;;-4.88;100.00
28927;BME280;16038;47.692;9.400;2023-12-04T05:22:40;96535.00;;;-4.86;100.00
28927;BME280;16038;47.692;9.400;2023-12-04T05:25:06;96543.06;;;-4.91;100.00
28927;BME280;16038;47.692;9.400;2023-12-04T05:27:31;96545.94;;;-4.83;100.00
28927;BME280;16038;47.692;9.400;2023-12-04T05:29:57;96541.97;;;-4.85;100.00
28927;BME280;16038;47.692;9.400;2023-12-04T05:32:22;96523.25;;;-4.85;100.00
28927;BME280;16038;47.692;9.400;2023-12-04T05:34:47;96526.44;;;-4.83;100.00
28927;BME280;16038;47.692;9.400;2023-12-04T05:37:13;96527.81;;;-4.86;100.00
28927;BME280;16038;47.692;9.400;2023-12-04T05:39:38;96529.94;;;-4.88;100.00
28927;BME280;16038;47.692;9.400;2023-12-04T05:42:04;96529.72;;;-5.07;100.00
28927;BME280;16038;47.692;9.400;2023-12-04T05:44:30;96528.09;;;-5.08;100.00
28927;BME280;16038;47.692;9.400;2023-12-04T05:46:56;96524.16;;;-5.41;100.00
28927;BME280;16038;47.692;9.400;2023-12-04T05:49:21;96517.22;;;-5.32;100.00
28927;BME280;16038;47.692;9.400;2023-12-04T05:51:46;96516.16;;;-5.26;100.00
28927;BME280;16038;47.692;9.400;2023-12-04T05:54:12;96512.69;;;-5.42;100.00
28927;BME280;16038;47.692;9.400;2023-12-04T05:56:37;96517.75;;;-5.66;100.00
28927;BME280;16038;47.692;9.400;2023-12-04T05:59:02;96502.56;;;-5.96;100.00
28927;BME280;16038;47.692;9.400;2023-12-04T06:01:28;96509.22;;;-5.93;100.00
28927;BME280;16038;47.692;9.400;2023-12-04T06:03:54;96495.88;;;-6.14;100.00
28927;BME280;16038;47.692;9.400;2023-12-04T06:06:19;96495.88;;;-6.14;100.00
28927;BME280;16038;47.692;9.400;2023-12-04T06:08:44;96498.81;;;-5.95;100.00
28927;BME280;16038;47.692;9.400;2023-12-04T06:11:10;96498.25;;;-6.28;100.00
28927;BME280;16038;47.692;9.400;2023-12-04T06:13:35;96492.59;;;-6.52;100.00
28927;BME280;16038;47.692;9.400;2023-12-04T06:16:01;96496.56;;;-6.60;100.00
28927;BME280;16038;47.692;9.400;2023-12-04T06:18:26;96492.84;;;-6.64;100.00
28927;BME280;16038;47.692;9.400;2023-12-04T06:20:52;96487.50;;;-6.54;100.00
28927;BME280;16038;47.692;9.400;2023-12-04T06:23:17;96480.34;;;-6.53;100.00
28927;BME280;16038;47.692;9.400;2023-12-04T06:25:44;96479.78;;;-6.60;100.00
28927;BME280;16038;47.692;9.400;2023-12-04T06:28:10;96466.19;;;-6.69;100.00
28927;BME280;16038;47.692;9.400;2023-12-04T06:30:36;96467.03;;;-6.53;100.00
28927;BME280;16038;47.692;9.400;2023-12-04T06:33:01;96467.88;;;-6.27;100.00
28927;BME280;16038;47.692;9.400;2023-12-04T06:35:28;96470.53;;;-6.27;100.00
28927;BME280;16038;47.692;9.400;2023-12-04T06:37:54;96471.53;;;-6.48;100.00
28927;BME280;16038;47.692;9.400;2023-12-04T06:40:20;96471.00;;;-6.61;100.00
28927;BME280;16038;47.692;9.400;2023-12-04T06:42:46;96468.00;;;-6.80;100.00
28927;BME280;16038;47.692;9.400;2023-12-04T06:45:11;96465.25;;;-6.95;100.00
28927;BME280;16038;47.692;9.400;2023-12-04T06:47:40;96454.38;;;-6.88;100.00
28927;BME280;16038;47.692;9.400;2023-12-04T06:50:06;96462.69;;;-6.80;100.00
28927;BME280;16038;47.692;9.400;2023-12-04T06:52:31;96454.72;;;-6.75;100.00
28927;BME280;16038;47.692;9.400;2023-12-04T06:54:56;96447.19;;;-6.88;100.00
28927;BME280;16038;47.692;9.400;2023-12-04T06:57:22;96436.31;;;-6.76;100.00
28927;BME280;16038;47.692;9.400;2023-12-04T06:59:47;96436.03;;;-6.80;100.00
28927;BME280;16038;47.692;9.400;2023-12-04T07:02:13;96440.81;;;-6.87;100.00
28927;BME280;16038;47.692;9.400;2023-12-04T07:04:38;96436.53;;;-6.98;100.00
28927;BME280;16038;47.692;9.400;2023-12-04T07:07:05;96435.22;;;-6.85;100.00
28927;BME280;16038;47.692;9.400;2023-12-04T07:09:33;96422.16;;;-6.92;100.00
28927;BME280;16038;47.692;9.400;2023-12-04T07:12:00;96413.56;;;-7.09;100.00
28927;BME280;16038;47.692;9.400;2023-12-04T07:14:25;96420.72;;;-7.25;100.00
28927;BME280;16038;47.692;9.400;2023-12-04T07:16:51;96403.88;;;-7.31;100.00
28927;BME280;16038;47.692;9.400;2023-12-04T07:19:17;96403.63;;;-7.30;100.00
28927;BME280;16038;47.692;9.400;2023-12-04T07:21:42;96402.22;;;-7.47;100.00
28927;BME280;16038;47.692;9.400;2023-12-04T07:24:08;96406.00;;;-7.43;100.00
28927;BME280;16038;47.692;9.400;2023-12-04T07:26:34;96436.09;;;-7.27;100.00
28927;BME280;16038;47.692;9.400;2023-12-04T07:29:01;96436.97;;;-7.22;100.00
28927;BME280;16038;47.692;9.400;2023-12-04T07:31:26;96446.81;;;-7.17;100.00
28927;BME280;16038;47.692;9.400;2023-12-04T07:33:53;96443.69;;;-7.04;100.00
28927;BME280;16038;47.692;9.400;2023-12-04T07:36:19;96446.06;;;-7.07;100.00
28927;BME280;16038;47.692;9.400;2023-12-04T07:38:44;96450.75;;;-6.57;100.00
28927;BME280;16038;47.692;9.400;2023-12-04T07:41:10;96447.59;;;-6.18;100.00
28927;BME280;16038;47.692;9.400;2023-12-04T07:43:35;96450.03;;;-6.06;100.00
28927;BME280;16038;47.692;9.400;2023-12-04T07:46:01;96443.88;;;-5.91;100.00
28927;BME280;16038;47.692;9.400;2023-12-04T07:48:26;96447.03;;;-5.53;100.00
28927;BME280;16038;47.692;9.400;2023-12-04T07:50:52;96443.31;;;-5.57;100.00
28927;BME280;16038;47.692;9.400;2023-12-04T07:53:17;96431.63;;;-6.23;100.00
28927;BME280;16038;47.692;9.400;2023-12-04T07:55:42;96428.13;;;-6.49;100.00
28927;BME280;16038;47.692;9.400;2023-12-04T07:58:09;96409.19;;;-6.68;100.00
28927;BME280;16038;47.692;9.400;2023-12-04T08:00:34;96420.66;;;-6.52;100.00
28927;BME280;16038;47.692;9.400;2023-12-04T08:03:00;96407.56;;;-6.69;100.00
28927;BME280;16038;47.692;9.400;2023-12-04T08:05:25;96411.28;;;-6.70;100.00
28927;BME280;16038;47.692;9.400;2023-12-04T08:07:52;96401.22;;;-6.47;100.00
28927;BME280;16038;47.692;9.400;2023-12-04T08:10:18;96382.81;;;-6.59;100.00
28927;BME280;16038;47.692;9.400;2023-12-04T08:12:46;96381.22;;;-6.40;100.00
28927;BME280;16038;47.692;9.400;2023-12-04T08:15:11;96369.22;;;-6.63;100.00
28927;BME280;16038;47.692;9.400;2023-12-04T08:17:37;96375.63;;;-6.43;100.00
28927;BME280;16038;47.692;9.400;2023-12-04T08:20:02;96384.97;;;-6.10;100.00
28927;BME280;16038;47.692;9.400;2023-12-04T08:22:29;96389.25;;;-6.24;100.00
28927;BME280;16038;47.692;9.400;2023-12-04T08:24:54;96390.03;;;-6.19;100.00
28927;BME280;16038;47.692;9.400;2023-12-04T08:27:20;96376.91;;;-5.95;100.00
28927;BME280;16038;47.692;9.400;2023-12-04T08:29:45;96374.84;;;-6.08;100.00
28927;BME280;16038;47.692;9.400;2023-12-04T08:32:11;96374.78;;;-5.92;100.00
28927;BME280;16038;47.692;9.400;2023-12-04T08:34:37;96390.47;;;-5.60;100.00
28927;BME280;16038;47.692;9.400;2023-12-04T08:37:02;96392.50;;;-5.26;100.00
28927;BME280;16038;47.692;9.400;2023-12-04T08:39:28;96389.47;;;-5.80;100.00
28927;BME280;16038;47.692;9.400;2023-12-04T08:41:53;96386.75;;;-5.74;100.00
28927;BME280;16038;47.692;9.400;2023-12-04T08:44:18;96384.03;;;-5.44;100.00
28927;BME280;16038;47.692;9.400;2023-12-04T08:46:44;96385.38;;;-5.41;100.00
28927;BME280;16038;47.692;9.400;2023-12-04T08:49:10;96386.97;;;-5.40;100.00
28927;BME280;16038;47.692;9.400;2023-12-04T08:51:35;96378.78;;;-5.04;100.00
28927;BME280;16038;47.692;9.400;2023-12-04T08:54:01;96374.91;;;-4.72;100.00
28927;BME280;16038;47.692;9.400;2023-12-04T08:56:26;96373.84;;;-4.71;100.00
28927;BME280;16038;47.692;9.400;2023-12-04T08:58:52;96382.94;;;-4.33;100.00
28927;BME280;16038;47.692;9.400;2023-12-04T09:01:17;96381.31;;;-3.94;100.00
28927;BME280;16038;47.692;9.400;2023-12-04T09:03:43;96361.75;;;-3.66;100.00
28927;BME280;16038;47.692;9.400;2023-12-04T09:06:08;96369.41;;;-3.54;100.00
28927;BME280;16038;47.692;9.400;2023-12-04T09:08:36;96388.97;;;-3.29;100.00
28927;BME280;16038;47.692;9.400;2023-12-04T09:11:02;96394.28;;;-3.24;100.00
28927;BME280;16038;47.692;9.400;2023-12-04T09:13:29;96384.25;;;-3.13;100.00
28927;BME280;16038;47.692;9.400;2023-12-04T09:15:56;96385.19;;;-3.52;100.00
28927;BME280;16038;47.692;9.400;2023-12-04T09:18:21;96382.84;;;-3.59;100.00
28927;BME280;16038;47.692;9.400;2023-12-04T09:20:47;96371.97;;;-4.31;100.00
28927;BME280;16038;47.692;9.400;2023-12-04T09:23:12;96385.16;;;-4.45;100.00
28927;BME280;16038;47.692;9.400;2023-12-04T09:25:38;96377.31;;;-4.71;100.00
28927;BME280;16038;47.692;9.400;2023-12-04T09:28:03;96387.88;;;-5.00;100.00
28927;BME280;16038;47.692;9.400;2023-12-04T09:30:29;96390.84;;;-5.07;100.00
28927;BME280;16038;47.692;9.400;2023-12-04T09:32:54;96393.16;;;-4.90;100.00
28927;BME280;16038;47.692;9.400;2023-12-04T09:35:20;96388.72;;;-5.15;100.00
28927;BME280;16038;47.692;9.400;2023-12-04T09:37:45;96389.81;;;-5.21;100.00
28927;BME280;16038;47.692;9.400;2023-12-04T09:40:11;96389.44;;;-4.94;100.00
28927;BME280;16038;47.692;9.400;2023-12-04T09:42:38;96392.63;;;-4.42;100.00
28927;BME280;16038;47.692;9.400;2023-12-04T09:45:05;96377.88;;;-4.79;100.00
28927;BME280;16038;47.692;9.400;2023-12-04T09:47:31;96368.38;;;-5.01;100.00
28927;BME280;16038;47.692;9.400;2023-12-04T09:49:58;96367.78;;;-4.87;100.00
28927;BME280;16038;47.692;9.400;2023-12-04T09:52:24;96371.25;;;-4.87;100.00
28927;BME280;16038;47.692;9.400;2023-12-04T09:54:52;96361.84;;;-4.79;100.00
28927;BME280;16038;47.692;9.400;2023-12-04T09:57:18;96354.75;;;-4.54;100.00
28927;BME280;16038;47.692;9.400;2023-12-04T09:59:44;96363.88;;;-4.61;100.00
28927;BME280;16038;47.692;9.400;2023-12-04T10:02:10;96353.97;;;-4.20;100.00
28927;BME280;16038;47.692;9.400;2023-12-04T10:04:35;96346.28;;;-3.44;100.00
28927;BME280;16038;47.692;9.400;2023-12-04T10:07:02;96351.94;;;-3.03;100.00
28927;BME280;16038;47.692;9.400;2023-12-04T10:09:27;96347.84;;;-2.76;100.00
28927;BME280;16038;47.692;9.400;2023-12-04T10:11:55;96353.72;;;-2.93;100.00
28927;BME280;16038;47.692;9.400;2023-12-04T10:14:21;96354.00;;;-2.57;100.00
28927;BME280;16038;47.692;9.400;2023-12-04T10:16:48;96361.06;;;-2.61;100.00
28927;BME280;16038;47.692;9.400;2023-12-04T10:19:27;96354.56;;;-2.22;100.00
28927;BME280;16038;47.692;9.400;2023-12-04T10:21:57;96350.28;;;-1.90;100.00
28927;BME280;16038;47.692;9.400;2023-12-04T10:24:33;96344.66;;;-1.61;100.00
28927;BME280;16038;47.692;9.400;2023-12-04T10:27:04;96340.00;;;-1.41;100.00
28927;BME280;16038;47.692;9.400;2023-12-04T10:29:46;96326.88;;;-1.29;100.00
28927;BME280;16038;47.692;9.400;2023-12-04T10:32:12;96328.25;;;-1.18;100.00
28927;BME280;16038;47.692;9.400;2023-12-04T10:34:41;96326.38;;;-1.17;100.00
28927;BME280;16038;47.692;9.400;2023-12-04T10:37:09;96320.28;;;-1.09;100.00
28927;BME280;16038;47.692;9.400;2023-12-04T10:39:49;96315.44;;;-1.48;100.00
28927;BME280;16038;47.692;9.400;2023-12-04T10:44:50;96295.38;;;-3.20;100.00
28927;BME280;16038;47.692;9.400;2023-12-04T10:47:16;96298.72;;;-3.53;100.00
28927;BME280;16038;47.692;9.400;2023-12-04T10:49:42;96293.06;;;-3.99;100.00
28927;BME280;16038;47.692;9.400;2023-12-04T10:52:09;96273.13;;;-3.64;100.00
28927;BME280;16038;47.692;9.400;2023-12-04T10:54:34;96271.88;;;-3.48;100.00
28927;BME280;16038;47.692;9.400;2023-12-04T10:57:01;96265.91;;;-3.01;100.00
28927;BME280;16038;47.692;9.400;2023-12-04T10:59:32;96273.69;;;-2.15;100.00
28927;BME280;16038;47.692;9.400;2023-12-04T11:02:01;96283.25;;;-1.95;100.00
28927;BME280;16038;47.692;9.400;2023-12-04T11:04:28;96288.34;;;-1.66;100.00
28927;BME280;16038;47.692;9.400;2023-12-04T11:06:58;96292.06;;;-0.84;100.00
28927;BME280;16038;47.692;9.400;2023-12-04T11:09:25;96294.63;;;-0.65;100.00
28927;BME280;16038;47.692;9.400;2023-12-04T11:11:58;96300.44;;;-0.26;100.00
28927;BME280;16038;47.692;9.400;2023-12-04T11:14:28;96300.75;;;0.04;100.00
28927;BME280;16038;47.692;9.400;2023-12-04T11:17:02;96307.47;;;0.46;100.00
28927;BME280;16038;47.692;9.400;2023-12-04T11:19:50;96306.13;;;1.32;100.00
28927;BME280;16038;47.692;9.400;2023-12-04T11:22:17;96301.66;;;2.54;97.13
28927;BME280;16038;47.692;9.400;2023-12-04T11:24:47;96293.81;;;2.61;90.30
28927;BME280;16038;47.692;9.400;2023-12-04T11:27:15;96279.88;;;1.94;93.20
28927;BME280;16038;47.692;9.400;2023-12-04T11:29:40;96268.56;;;2.57;91.22
28927;BME280;16038;47.692;9.400;2023-12-04T11:32:06;96262.06;;;2.58;85.64
28927;BME280;16038;47.692;9.400;2023-12-04T11:34:32;96268.91;;;0.77;95.60
28927;BME280;16038;47.692;9.400;2023-12-04T11:36:57;96257.00;;;-0.11;100.00
28927;BME280;16038;47.692;9.400;2023-12-04T11:39:25;96260.78;;;-0.34;100.00
28927;BME280;16038;47.692;9.400;2023-12-04T11:41:50;96250.75;;;-1.66;100.00
28927;BME280;16038;47.692;9.400;2023-12-04T11:44:16;96248.06;;;-2.07;100.00
28927;BME280;16038;47.692;9.400;2023-12-04T11:47:11;96237.03;;;-2.53;100.00
28927;BME280;16038;47.692;9.400;2023-12-04T11:49:36;96250.50;;;-1.78;100.00
28927;BME280;16038;47.692;9.400;2023-12-04T11:52:05;96222.00;;;-2.86;100.00
28927;BME280;16038;47.692;9.400;2023-12-04T11:55:03;96214.59;;;-1.96;100.00
28927;BME280;16038;47.692;9.400;2023-12-04T11:57:39;96199.53;;;-3.23;100.00
28927;BME280;16038;47.692;9.400;2023-12-04T12:02:34;96198.06;;;-2.97;100.00
28927;BME280;16038;47.692;9.400;2023-12-04T12:05:00;96223.03;;;-1.89;100.00
28927;BME280;16038;47.692;9.400;2023-12-04T12:07:26;96228.09;;;-0.50;100.00
28927;BME280;16038;47.692;9.400;2023-12-04T12:09:51;96221.03;;;0.25;100.00
28927;BME280;16038;47.692;9.400;2023-12-04T12:12:17;96222.56;;;0.66;100.00
28927;BME280;16038;47.692;9.400;2023-12-04T12:14:42;96224.53;;;0.92;100.00
28927;BME280;16038;47.692;9.400;2023-12-04T12:17:08;96210.84;;;1.58;100.00
28927;BME280;16038;47.692;9.400;2023-12-04T12:19:33;96223.25;;;2.83;93.07
28927;BME280;16038;47.692;9.400;2023-12-04T12:21:59;96223.88;;;3.10;88.79
28927;BME280;16038;47.692;9.400;2023-12-04T12:24:25;96212.41;;;4.26;79.94
28927;BME280;16038;47.692;9.400;2023-12-04T12:26:51;96212.66;;;4.57;76.24
28927;BME280;16038;47.692;9.400;2023-12-04T12:29:17;96209.69;;;4.13;71.91
28927;BME280;16038;47.692;9.400;2023-12-04T12:31:42;96212.84;;;2.35;86.91
28927;BME280;16038;47.692;9.400;2023-12-04T12:34:08;96218.88;;;2.40;85.24
28927;BME280;16038;47.692;9.400;2023-12-04T12:36:34;96213.94;;;2.93;84.96
28927;BME280;16038;47.692;9.400;2023-12-04T12:39:00;96207.84;;;2.75;84.64
28927;BME280;16038;47.692;9.400;2023-12-04T12:41:26;96204.47;;;2.27;82.82
28927;BME280;16038;47.692;9.400;2023-12-04T12:43:52;96173.94;;;-0.57;100.00
28927;BME280;16038;47.692;9.400;2023-12-04T12:46:18;96181.22;;;-0.81;100.00
28927;BME280;16038;47.692;9.400;2023-12-04T12:48:46;96166.59;;;-0.88;100.00
28927;BME280;16038;47.692;9.400;2023-12-04T12:51:12;96156.72;;;-0.25;100.00